Oakham, MA (01068)

2:24 AM EDT on August 20, 2014 (GMT -0400)
Rocky Hill Woods-Oakham | Change Station
CLOSE
Current Station
Personal Weather Station
Location: Oakham, MA
Elevation: 1037 ft
Nearby Weather Stations

Elev 1037 ft 42.34 °N, 72.01 °W | Updated 3 minutes ago

Clear
Clear
54.3 °F
Feels Like 54.3 °F
N
0.0
Wind Variable Wind from West
Gusts 0.0 mph

Today
High -- | Low -- °F
--% Chance of Precip.
Yesterday
High -- | Low -- °F
Precip. -- in
6:00 AM 7:41 PM
Waning Crescent, 24% visible
Pressure 29.98 in
Visibility 10.0 miles
Clouds Clear
Dew Point 51 °F
Humidity 88%
Rainfall 0.00 in
Snow Depth Not available.
UV 0 out of 12
Pollen 9.40 out of 12
PM2.5 Good
Flu Activity Not available.
METAR KORH 200554Z AUTO 29007KT 10SM CLR 16/12 A2999 RMK AO2 SLP151 T01610117 10189 20156 50005

More Conditions Fewer Conditions

Pressure 29.98 in
Visibility 10.0 miles
Clouds Clear
Dew Point 51 °F
Humidity 88%
Rainfall 0.00 in
Snow Depth Not available.
UV 0 out of 12
Pollen 9.40 out of 12
PM2.5 Good
Flu Activity Not available.
METAR KORH 200554Z AUTO 29007KT 10SM CLR 16/12 A2999 RMK AO2 SLP151 T01610117 10189 20156 50005

More Conditions Fewer Conditions

10-Day Weather Forecast

Almanac

Astronomy

Aug. 20, 2014 Rise Set
Actual Time 6:00 AM EDT 7:41 PM EDT
Civil Twilight 5:30 AM EDT 8:11 PM EDT
Nautical Twilight 4:54 AM EDT 8:47 PM EDT
Astronomical Twilight 4:15 AM EDT 9:26 PM EDT
Moon 1:36 AM EDT 4:26 PM EDT
Length of Visible Light 14h 40m
Length of Day
13h 41m
Tomorrow will be 2m 36s shorter.
Waning Crescent, 24% of the Moon is Illuminated
Today
Waning Crescent
Aug 25
New
Sep 2
First Quarter
Sep 8
Full
Sep 15
Last Quarter

Today's Extremes

State Highs State Lows

Community

WunderPhotos

Upload Photos

1,745,592 photos uploaded!

Nearby

Air Quality

  Air Quality AQ Index Pollutant
Yesterday Good
PM2.5
Current Good
PM2.5
Wednesday Good
PM2.5
Wednesday Good
OZONE

Snow Depth

Station Depth Elevation
No new snow has been reported.

Earthquake Activity

City Distance Mag. Time & Date
Deep River Center, Connecticut 72 miles 2.7 3:09 AM EDT
2014-08-14
Minimum magnitude displayed is 2.5.

Coastal Water Temperatures

Place Temperature
No Stations Reporting

Nearby Weather Stations